Weather at Tanjung Harapan Airport

Public forecast

Using degrees Celsius for public forecast. Weather courtesy of forecast.io.

Closest aviation weather report (METAR) to Tanjung Harapan Airport

Report is more than 2 hours old.

Closest report is Juwata Airport, 31.7 nm (58.8 km) NNE. Retrieved 2021/09/25 15:00 UTC (3 hours ago):

WAQQ 251500Z 03002KT 8000 FEW015 SCT100 25/24 Q1010 NOSIG

Aviation forecast (TAF) for Tanjung Harapan Airport

Forecast is more than 12 hours old.

Retrieved 2015/03/28 06:00 UTC (7 years ago):

TAF WALG 280500Z 2806/2818 12010KT 9999 SCT015 TEMPO 2815/2818 7000 RA FEW015CB SCT018